createdAt,value
2023-03-29T00:02:16.503Z,3.5
2023-03-29T00:12:18.178Z,3.5
2023-03-29T00:22:19.910Z,3.5
2023-03-29T00:42:24.796Z,3.3
2023-03-29T00:52:27.131Z,3.2
2023-03-29T01:02:29.572Z,3.4
2023-03-29T01:12:31.814Z,3.4
2023-03-29T01:22:33.883Z,3.5
2023-03-29T01:32:36.527Z,3.4
2023-03-29T01:42:38.508Z,3.5
2023-03-29T01:52:40.909Z,3.5
2023-03-29T02:02:42.782Z,3.6
2023-03-29T02:12:44.899Z,3.7
2023-03-29T02:22:47.525Z,3.9
2023-03-29T02:32:49.845Z,4
2023-03-29T02:42:51.626Z,4.1
2023-03-29T02:52:53.437Z,4.2
2023-03-29T03:02:55.932Z,4.3
2023-03-29T03:12:57.902Z,4.4
2023-03-29T03:23:00.517Z,4.4
2023-03-29T03:33:02.792Z,4.4
2023-03-29T03:43:05.171Z,4.5
2023-03-29T03:53:07.154Z,4.7
2023-03-29T04:03:09.526Z,4.9
2023-03-29T04:13:11.331Z,5
2023-03-29T04:23:13.730Z,5.2
2023-03-29T04:33:16.298Z,5
2023-03-29T04:43:18.261Z,4.9
2023-03-29T04:53:20.507Z,4.8
2023-03-29T05:03:22.904Z,4.8
2023-03-29T05:23:27.062Z,4.8
2023-03-29T05:33:29.059Z,4.9
2023-03-29T05:43:31.378Z,5.1
2023-03-29T05:53:33.907Z,5.2
2023-03-29T06:03:35.948Z,5.2
2023-03-29T06:13:37.871Z,5.2
2023-03-29T06:23:39.771Z,5.3
2023-03-29T06:43:44.460Z,5.7
2023-03-29T06:53:46.173Z,5.9
2023-03-29T07:03:48.175Z,6.1
2023-03-29T07:13:50.393Z,6.4
2023-03-29T07:23:52.141Z,6.6
2023-03-29T07:43:56.517Z,7
2023-03-29T07:53:59.076Z,7.2
2023-03-29T08:04:01.450Z,7.5
2023-03-29T08:14:03.654Z,7.7
2023-03-29T08:24:05.962Z,7.7
2023-03-29T08:34:07.710Z,8
2023-03-29T08:44:09.915Z,8.2
2023-03-29T08:54:12.578Z,8.3
2023-03-29T09:04:14.950Z,8.6
2023-03-29T09:24:19.823Z,8.7
2023-03-29T09:34:21.468Z,8.3
2023-03-29T09:44:30.656Z,8
2023-03-29T09:54:24.989Z,8.1
2023-03-29T10:04:27.626Z,8
2023-03-29T10:14:29.282Z,8.2
2023-03-29T10:24:31.685Z,8.5
2023-03-29T10:34:33.566Z,8.9
2023-03-29T10:44:35.519Z,9.3
2023-03-29T10:54:37.756Z,9.8
2023-03-29T11:04:40.316Z,9.6
2023-03-29T11:14:42.336Z,10.1
2023-03-29T11:24:44.641Z,10.2
2023-03-29T11:34:46.934Z,10.7
2023-03-29T11:44:48.921Z,11.2
2023-03-29T11:54:51.078Z,11.4
2023-03-29T12:04:53.659Z,12.5
2023-03-29T12:14:56.192Z,12.4
2023-03-29T12:24:58.655Z,12.4
2023-03-29T12:35:01.233Z,13.3
2023-03-29T12:45:03.580Z,13.1
2023-03-29T12:55:05.510Z,13.2
2023-03-29T13:05:07.350Z,13.4
2023-03-29T13:15:09.786Z,13.1
2023-03-29T13:25:12.391Z,12.9
2023-03-29T13:35:14.193Z,12.8
2023-03-29T13:45:16.062Z,13.6
2023-03-29T13:55:18.115Z,13.2
2023-03-29T14:05:19.918Z,13
2023-03-29T14:15:22.460Z,13.3
2023-03-29T14:25:24.164Z,13.6
2023-03-29T14:35:26.727Z,13.8
2023-03-29T14:45:29.345Z,13.6
2023-03-29T15:05:33.050Z,13.9
2023-03-29T15:15:34.999Z,13.9
2023-03-29T15:25:37.450Z,13.9
2023-03-29T15:35:39.539Z,13.8
2023-03-29T15:55:44.264Z,13.8
2023-03-29T16:05:45.966Z,13.8
2023-03-29T16:15:47.700Z,13.7
2023-03-29T16:25:50.143Z,13.7
2023-03-29T16:35:52.149Z,13.8
2023-03-29T16:45:53.887Z,13.8
2023-03-29T16:55:55.891Z,13.8
2023-03-29T17:05:58.478Z,13.7
2023-03-29T17:16:00.526Z,13.8
2023-03-29T17:26:03.074Z,13.7
2023-03-29T17:36:04.764Z,13.6
2023-03-29T17:56:08.661Z,13.7
2023-03-29T18:06:10.703Z,13.7
2023-03-29T18:16:13.043Z,13.7
2023-03-29T18:26:15.488Z,13.7
2023-03-29T18:36:17.355Z,13.6
2023-03-29T18:46:19.751Z,13.7
2023-03-29T18:56:22.138Z,13.6
2023-03-29T19:06:24.226Z,13.6
2023-03-29T19:16:26.821Z,13.5
2023-03-29T19:26:28.941Z,13.4
2023-03-29T19:36:31.099Z,13.5
2023-03-29T19:46:32.878Z,13.4
2023-03-29T19:56:34.978Z,13.3
2023-03-29T20:06:37.342Z,13.2
2023-03-29T20:16:39.070Z,13.2
2023-03-29T20:26:41.250Z,12.9
2023-03-29T20:46:45.949Z,12.5
2023-03-29T20:56:48.003Z,12.2
2023-03-29T21:06:50.281Z,12.1
2023-03-29T21:16:52.626Z,12.1
2023-03-29T21:26:54.446Z,12.1
2023-03-29T21:36:56.669Z,12.1
2023-03-29T21:46:58.930Z,12.1
2023-03-29T21:57:00.674Z,12
2023-03-29T22:07:10.195Z,12.1
2023-03-29T22:17:11.867Z,12.1
2023-03-29T22:37:16.525Z,12.1
2023-03-29T22:57:20.895Z,12.1
2023-03-29T23:37:28.499Z,11.2
2023-03-29T23:47:30.260Z,11.5
2023-03-29T23:57:32.146Z,12.5
